Time;durP1;ratioP1;P1;durP2;ratioP2;P2;SDS_P1;SDS_P2;PMS_P1;PMS_P2;Temp;Humidity;BMP_temperature;BMP_pressure;BME280_temperature;BME280_humidity;BME280_pressure;Samples;Min_cycle;Max_cycle;Signal;HPM_P1;HPM_P2
2023/04/08 00:01:53;;;;;;;107.50;31.30;;;;;;;8.49;100.00;102290.06;5069502;28;20028;-49
2023/04/08 00:04:18;;;;;;;114.55;33.63;;;;;;;8.49;100.00;102290.06;5069520;28;20143;-50
2023/04/08 00:06:44;;;;;;;110.22;33.38;;;;;;;8.49;100.00;102291.91;5069427;28;20207;-50
2023/04/08 00:09:09;;;;;;;107.30;34.10;;;;;;;8.46;100.00;102282.28;5069360;28;20057;-50
2023/04/08 00:11:36;;;;;;;110.78;32.10;;;;;;;8.47;100.00;102286.66;5069476;28;20104;-47
2023/04/08 00:14:03;;;;;;;114.20;34.88;;;;;;;8.51;100.00;102285.41;5069501;28;20055;-48
2023/04/08 00:16:28;;;;;;;112.43;34.63;;;;;;;8.53;100.00;102288.81;5069533;28;20025;-47
2023/04/08 00:18:53;;;;;;;108.10;32.92;;;;;;;8.49;100.00;102287.38;5069106;28;20166;-48
2023/04/08 00:21:20;;;;;;;115.78;35.15;;;;;;;8.45;100.00;102291.31;5069299;28;20056;-49
2023/04/08 00:23:45;;;;;;;116.82;34.42;;;;;;;8.45;100.00;102287.75;5069233;28;20021;-50
2023/04/08 00:26:11;;;;;;;117.72;34.45;;;;;;;8.47;100.00;102293.84;5071544;28;20028;-50
2023/04/08 00:28:37;;;;;;;117.72;36.78;;;;;;;8.47;100.00;102289.34;5072735;28;20032;-48
2023/04/08 00:31:02;;;;;;;114.55;36.35;;;;;;;8.49;100.00;102291.91;5072912;28;20473;-49
2023/04/08 00:33:27;;;;;;;113.43;34.20;;;;;;;8.50;100.00;102293.59;5075229;28;20024;-49
2023/04/08 00:35:54;;;;;;;129.15;34.95;;;;;;;8.54;100.00;102298.56;5076252;28;20071;-48
2023/04/08 00:38:19;;;;;;;118.47;34.17;;;;;;;8.56;100.00;102299.28;5076476;28;20020;-48
2023/04/08 00:40:45;;;;;;;120.10;35.55;;;;;;;8.60;100.00;102305.22;5076344;28;20048;-47
2023/04/08 00:43:10;;;;;;;124.28;35.58;;;;;;;8.52;100.00;102292.47;5076467;28;20028;-48
2023/04/08 00:45:37;;;;;;;117.32;34.22;;;;;;;8.52;100.00;102295.16;5073113;28;20029;-49
2023/04/08 00:48:03;;;;;;;125.85;36.92;;;;;;;8.51;100.00;102298.00;5071590;28;20040;-48
2023/04/08 00:50:28;;;;;;;136.77;37.70;;;;;;;8.52;100.00;102295.16;5072928;28;20094;-48
2023/04/08 00:52:54;;;;;;;123.65;37.30;;;;;;;8.48;100.00;102296.41;5072427;28;20386;-48
2023/04/08 00:55:19;;;;;;;133.57;36.65;;;;;;;8.52;100.00;102300.53;5072503;28;20039;-46
2023/04/08 00:57:45;;;;;;;122.78;36.22;;;;;;;8.53;100.00;102290.63;5072722;28;20419;-49
2023/04/08 01:00:11;;;;;;;119.93;36.58;;;;;;;8.57;100.00;102294.75;5072352;28;20020;-48
2023/04/08 01:02:49;;;;;;;134.95;37.63;;;;;;;8.60;100.00;102299.00;5072791;28;20074;-47
2023/04/08 01:05:17;;;;;;;131.80;35.95;;;;;;;8.51;100.00;102293.47;5072548;28;20044;-47
2023/04/08 01:07:47;;;;;;;117.53;34.97;;;;;;;8.54;100.00;102295.03;5075710;28;20029;-46
2023/04/08 01:10:22;;;;;;;127.15;35.58;;;;;;;8.51;100.00;102295.31;5076659;28;20032;-47
2023/04/08 01:12:53;;;;;;;123.95;35.60;;;;;;;8.47;100.00;102297.38;5074569;28;20044;-48
2023/04/08 01:15:19;;;;;;;122.47;36.78;;;;;;;8.45;100.00;102299.38;5074358;28;20032;-49
2023/04/08 01:17:45;;;;;;;122.18;36.10;;;;;;;8.47;100.00;102308.13;5075833;28;20021;-48
2023/04/08 01:20:12;;;;;;;123.20;37.08;;;;;;;8.43;100.00;102295.13;5072933;28;20057;-48
2023/04/08 01:23:15;;;;;;;129.15;37.80;;;;;;;8.48;100.00;102303.63;5071534;28;20043;-48
2023/04/08 01:25:54;;;;;;;122.97;37.58;;;;;;;8.46;100.00;102298.38;5072444;28;20048;-49
2023/04/08 01:28:21;;;;;;;119.53;35.78;;;;;;;8.47;100.00;102300.06;5073027;28;20036;-47
2023/04/08 01:30:48;;;;;;;114.63;35.83;;;;;;;8.48;100.00;102311.69;5070809;28;20369;-51
2023/04/08 01:33:15;;;;;;;121.82;36.60;;;;;;;8.51;100.00;102308.72;5073177;28;20481;-49
2023/04/08 01:35:41;;;;;;;123.90;36.90;;;;;;;8.50;100.00;102315.91;5073021;28;20497;-47
2023/04/08 01:38:08;;;;;;;135.70;39.05;;;;;;;8.43;100.00;102304.00;5070557;28;20021;-48
2023/04/08 01:40:34;;;;;;;135.13;40.00;;;;;;;8.41;100.00;102308.66;5071658;28;20037;-50
2023/04/08 01:43:00;;;;;;;136.57;40.50;;;;;;;8.38;100.00;102308.88;5074961;28;20020;-47
2023/04/08 01:45:27;;;;;;;134.20;39.05;;;;;;;8.37;100.00;102312.53;5074333;28;20024;-48
2023/04/08 01:47:52;;;;;;;134.65;38.05;;;;;;;8.41;100.00;102314.03;5073054;28;20450;-49
2023/04/08 01:50:18;;;;;;;138.20;40.45;;;;;;;8.39;100.00;102313.28;5072318;28;20048;-50
2023/04/08 01:52:45;;;;;;;138.77;40.33;;;;;;;8.36;100.00;102313.53;5070539;28;20047;-47
2023/04/08 01:55:10;;;;;;;140.32;39.92;;;;;;;8.34;100.00;102321.69;5070470;28;20142;-49
2023/04/08 01:57:37;;;;;;;141.13;41.92;;;;;;;8.33;100.00;102324.53;5071631;28;20021;-48
2023/04/08 02:00:06;;;;;;;150.07;42.38;;;;;;;8.30;100.00;102324.78;5071823;28;20473;-48
2023/04/08 02:02:32;;;;;;;152.70;41.70;;;;;;;8.30;100.00;102319.44;5071644;28;20055;-49
2023/04/08 02:04:58;;;;;;;149.27;41.38;;;;;;;8.29;100.00;102318.59;5070053;28;20470;-50
2023/04/08 02:07:23;;;;;;;152.48;43.58;;;;;;;8.29;100.00;102317.72;5071186;28;20026;-49
2023/04/08 02:09:49;;;;;;;145.93;43.13;;;;;;;8.27;100.00;102325.91;5071346;28;20029;-50
2023/04/08 02:12:15;;;;;;;151.15;43.00;;;;;;;8.26;100.00;102326.03;5071404;28;20036;-50
2023/04/08 02:14:40;;;;;;;154.05;45.92;;;;;;;8.26;100.00;102323.34;5069759;28;20024;-49
2023/04/08 02:17:12;;;;;;;155.18;43.70;;;;;;;8.27;100.00;102327.75;5069730;28;20056;-47
2023/04/08 02:19:52;;;;;;;162.75;45.08;;;;;;;8.34;100.00;102327.06;5071088;28;20432;-49
2023/04/08 02:23:02;;;;;;;148.00;44.72;;;;;;;8.30;100.00;102325.63;5069671;28;20384;-50
2023/04/08 02:25:28;;;;;;;153.25;44.33;;;;;;;8.28;100.00;102321.38;5054789;28;20044;-47
2023/04/08 02:27:54;;;;;;;150.07;40.88;;;;;;;8.30;100.00;102324.78;5071036;28;20392;-48
2023/04/08 02:30:20;;;;;;;154.55;42.78;;;;;;;8.32;100.00;102328.16;5071083;28;20028;-53
2023/04/08 02:32:46;;;;;;;148.75;41.75;;;;;;;8.31;100.00;102321.97;5069526;28;20031;-49
2023/04/08 02:35:13;;;;;;;142.70;42.38;;;;;;;8.35;100.00;102322.56;5070745;28;20055;-49
2023/04/08 02:37:38;;;;;;;151.20;40.75;;;;;;;8.36;100.00;102318.91;5068879;28;20047;-50
2023/04/08 02:40:21;;;;;;;145.35;40.25;;;;;;;8.30;100.00;102319.44;5067959;28;20103;-49
2023/04/08 02:42:47;;;;;;;139.32;39.80;;;;;;;8.24;100.00;102317.25;5068390;28;20394;-49
2023/04/08 02:45:12;;;;;;;145.82;40.55;;;;;;;8.18;100.00;102321.31;5070513;28;20104;-49
2023/04/08 02:47:37;;;;;;;156.75;42.40;;;;;;;8.10;100.00;102326.47;5069986;28;20485;-48
2023/04/08 02:50:03;;;;;;;132.35;38.85;;;;;;;8.06;100.00;102323.22;5070778;28;20032;-49
2023/04/08 02:52:28;;;;;;;141.70;39.67;;;;;;;8.03;100.00;102333.31;5070491;28;20360;-48
2023/04/08 02:54:53;;;;;;;141.90;39.85;;;;;;;8.03;100.00;102331.50;5070439;28;20078;-48
2023/04/08 02:57:19;;;;;;;151.80;40.90;;;;;;;7.98;100.00;102336.41;5070588;28;20492;-47
2023/04/08 02:59:44;;;;;;;143.15;39.50;;;;;;;7.96;100.00;102338.34;5070619;28;20481;-47
2023/04/08 03:02:10;;;;;;;153.85;40.42;;;;;;;7.93;100.00;102341.31;5070698;28;20028;-48
2023/04/08 03:04:35;;;;;;;160.52;39.92;;;;;;;7.91;100.00;102351.28;5070429;28;20392;-47
2023/04/08 03:07:00;;;;;;;157.50;42.67;;;;;;;7.90;100.00;102349.59;5070285;28;20109;-48
2023/04/08 03:09:26;;;;;;;155.02;41.22;;;;;;;7.88;100.00;102343.50;5070392;28;20070;-48
2023/04/08 03:11:53;;;;;;;162.45;42.22;;;;;;;7.85;100.00;102354.50;5070240;28;20028;-47
2023/04/08 03:14:19;;;;;;;157.55;41.63;;;;;;;7.84;100.00;102350.09;5070404;28;20546;-47
2023/04/08 03:16:45;;;;;;;172.05;41.45;;;;;;;7.82;100.00;102349.34;5070020;28;20031;-50
2023/04/08 03:19:10;;;;;;;157.13;40.45;;;;;;;7.82;100.00;102354.72;5070357;28;20428;-51
2023/04/08 03:21:35;;;;;;;157.95;42.22;;;;;;;7.80;100.00;102354.03;5070348;28;20028;-48
2023/04/08 03:24:01;;;;;;;167.25;41.95;;;;;;;7.78;100.00;102358.66;5070400;28;20028;-51
2023/04/08 03:26:26;;;;;;;162.55;41.55;;;;;;;7.78;100.00;102364.00;5070122;28;20022;-49
2023/04/08 03:28:52;;;;;;;167.20;46.63;;;;;;;7.77;100.00;102373.88;5070277;28;20024;-47
2023/04/08 03:31:20;;;;;;;161.88;41.00;;;;;;;7.78;100.00;102380.09;5070704;28;20589;-47
2023/04/08 03:33:45;;;;;;;172.57;41.83;;;;;;;7.78;100.00;102377.41;5071026;28;20393;-49
2023/04/08 03:36:11;;;;;;;161.05;41.92;;;;;;;7.78;100.00;102382.78;5071209;28;20028;-47
2023/04/08 03:38:36;;;;;;;174.13;41.35;;;;;;;7.82;100.00;102384.22;5070601;28;20596;-48
2023/04/08 03:41:01;;;;;;;176.52;42.47;;;;;;;7.84;100.00;102385.78;5070634;28;20034;-47
2023/04/08 03:43:27;;;;;;;168.95;41.08;;;;;;;7.86;100.00;102389.19;5070912;28;20028;-48
2023/04/08 03:45:52;;;;;;;166.05;41.42;;;;;;;7.88;100.00;102381.88;5070298;28;20108;-50
2023/04/08 03:48:17;;;;;;;162.15;43.05;;;;;;;7.89;100.00;102391.63;5070278;28;20492;-47
2023/04/08 03:50:43;;;;;;;170.18;42.83;;;;;;;7.90;100.00;102393.34;5070458;28;20492;-48
2023/04/08 03:53:10;;;;;;;167.65;39.92;;;;;;;7.91;100.00;102400.38;5070176;28;20052;-48
2023/04/08 03:55:36;;;;;;;166.93;43.83;;;;;;;7.92;100.00;102395.88;5070683;28;20035;-47
2023/04/08 03:58:01;;;;;;;158.77;41.42;;;;;;;7.93;100.00;102402.13;5070498;28;20036;-48
2023/04/08 04:00:26;;;;;;;156.52;39.88;;;;;;;7.91;100.00;102408.44;5071455;28;20133;-47
2023/04/08 04:02:52;;;;;;;172.55;44.45;;;;;;;7.91;100.00;102399.56;5073748;28;20720;-46
2023/04/08 04:05:17;;;;;;;157.48;41.88;;;;;;;7.92;100.00;102398.56;5074114;28;20102;-48
2023/04/08 04:07:43;;;;;;;168.57;42.72;;;;;;;7.89;100.00;102398.81;5074303;28;20036;-48
2023/04/08 04:10:09;;;;;;;180.18;45.63;;;;;;;7.88;100.00;102400.66;5074177;28;20504;-49
2023/04/08 04:12:35;;;;;;;168.77;42.20;;;;;;;7.85;100.00;102405.41;5072931;28;20031;-49
2023/04/08 04:15:00;;;;;;;173.30;45.42;;;;;;;7.83;100.00;102402.84;5074213;28;20021;-48
2023/04/08 04:17:25;;;;;;;180.93;45.25;;;;;;;7.79;100.00;102401.38;5074459;28;20111;-47
2023/04/08 04:19:51;;;;;;;175.60;42.97;;;;;;;7.74;100.00;102402.75;5074593;28;20058;-51
2023/04/08 04:22:17;;;;;;;187.82;45.30;;;;;;;7.70;100.00;102405.69;5074175;28;20539;-48
2023/04/08 04:24:46;;;;;;;185.35;45.03;;;;;;;7.67;100.00;102408.63;5074123;28;20116;-47
2023/04/08 04:27:11;;;;;;;183.85;44.00;;;;;;;7.66;100.00;102414.09;5074059;28;20182;-48
2023/04/08 04:29:37;;;;;;;181.10;42.63;;;;;;;7.64;100.00;102414.22;5073610;28;20566;-49
2023/04/08 04:32:02;;;;;;;178.98;42.80;;;;;;;7.64;100.00;102418.75;5073808;28;20060;-48
2023/04/08 04:34:27;;;;;;;164.00;41.90;;;;;;;7.64;100.00;102419.59;5073777;28;20085;-48
2023/04/08 04:36:53;;;;;;;171.65;41.20;;;;;;;7.68;100.00;102421.03;5073828;28;20033;-49
2023/04/08 04:39:18;;;;;;;163.98;42.50;;;;;;;7.69;100.00;102430.78;5073895;28;20032;-50
2023/04/08 04:41:43;;;;;;;170.50;41.65;;;;;;;7.81;100.00;102428.94;5073630;28;20028;-50
2023/04/08 04:44:09;;;;;;;179.32;41.08;;;;;;;7.85;100.00;102432.22;5073406;28;20037;-49
2023/04/08 04:46:34;;;;;;;173.90;41.25;;;;;;;7.95;100.00;102425.09;5073337;28;20127;-51
2023/04/08 04:49:00;;;;;;;153.95;38.97;;;;;;;7.92;100.00;102422.69;5073256;28;20389;-50
2023/04/08 04:51:26;;;;;;;165.70;41.30;;;;;;;7.96;100.00;102426.84;5073251;28;20070;-50
2023/04/08 04:53:51;;;;;;;163.95;41.25;;;;;;;7.99;100.00;102434.63;5072741;28;20048;-49
2023/04/08 04:56:17;;;;;;;162.35;42.47;;;;;;;7.97;100.00;102430.34;5073500;28;20396;-48
2023/04/08 04:58:42;;;;;;;167.40;40.20;;;;;;;8.05;100.00;102434.09;5072937;28;20473;-47
2023/04/08 05:01:07;;;;;;;162.15;40.53;;;;;;;8.04;100.00;102432.41;5073034;28;20494;-49
2023/04/08 05:03:33;;;;;;;163.73;40.58;;;;;;;8.03;100.00;102438.75;5071767;28;20024;-49
2023/04/08 05:05:58;;;;;;;162.65;39.47;;;;;;;8.09;100.00;102445.44;5073022;28;20025;-49
2023/04/08 05:08:23;;;;;;;159.60;40.80;;;;;;;8.05;100.00;102434.09;5072752;28;20112;-48
2023/04/08 05:10:49;;;;;;;156.30;39.72;;;;;;;8.04;100.00;102437.78;5072776;28;20083;-49
2023/04/08 05:13:15;;;;;;;161.93;40.47;;;;;;;8.09;100.00;102432.03;5072385;28;20469;-47
2023/04/08 05:15:40;;;;;;;167.75;39.90;;;;;;;8.04;100.00;102440.47;5072525;28;20104;-49
2023/04/08 05:18:05;;;;;;;167.95;41.95;;;;;;;8.03;100.00;102438.75;5072396;28;20024;-48
2023/04/08 05:20:31;;;;;;;153.98;40.75;;;;;;;7.97;100.00;102436.56;5072507;28;20029;-46
2023/04/08 05:22:56;;;;;;;163.43;40.60;;;;;;;7.92;100.00;102438.78;5072610;28;20082;-48
2023/04/08 05:25:22;;;;;;;148.43;41.50;;;;;;;7.95;100.00;102441.19;5072378;28;20024;-48
2023/04/08 05:27:47;;;;;;;162.55;43.67;;;;;;;7.99;100.00;102442.66;5072856;28;20025;-47
2023/04/08 05:30:12;;;;;;;154.25;39.67;;;;;;;7.99;100.00;102445.34;5072511;28;20578;-48
2023/04/08 05:32:38;;;;;;;152.02;41.15;;;;;;;8.01;100.00;102443.41;5073115;28;20547;-47
2023/04/08 05:35:03;;;;;;;152.30;40.58;;;;;;;8.03;100.00;102446.81;5072475;28;20031;-48
2023/04/08 05:37:29;;;;;;;159.07;44.05;;;;;;;8.03;100.00;102445.94;5073193;28;20032;-49
2023/04/08 05:39:54;;;;;;;149.57;40.75;;;;;;;8.01;100.00;102451.44;5073097;28;20024;-50
2023/04/08 05:42:20;;;;;;;168.63;44.53;;;;;;;7.94;100.00;102444.88;5072753;28;20390;-48
2023/04/08 05:44:45;;;;;;;158.48;42.40;;;;;;;7.89;100.00;102455.09;5072541;28;20552;-49
2023/04/08 05:47:10;;;;;;;165.85;44.45;;;;;;;7.87;100.00;102459.75;5072471;28;20024;-48
2023/04/08 05:49:36;;;;;;;156.85;43.00;;;;;;;7.97;100.00;102463.38;5072593;28;20012;-48
2023/04/08 05:52:02;;;;;;;160.07;43.25;;;;;;;8.07;100.00;102458.97;5072513;28;20481;-49
2023/04/08 05:54:28;;;;;;;160.70;41.08;;;;;;;8.06;100.00;102461.78;5070541;28;20439;-48
2023/04/08 05:56:53;;;;;;;166.63;43.22;;;;;;;8.07;100.00;102466.16;5072268;28;20021;-48
2023/04/08 05:59:18;;;;;;;162.80;42.78;;;;;;;8.12;100.00;102467.50;5071630;28;20077;-51
2023/04/08 06:01:44;;;;;;;171.00;44.15;;;;;;;8.10;100.00;102468.59;5071840;28;20489;-50
2023/04/08 06:04:09;;;;;;;171.15;43.00;;;;;;;8.17;100.00;102477.84;5072038;28;20032;-50
2023/04/08 06:06:37;;;;;;;151.65;41.92;;;;;;;8.19;100.00;102483.06;5071759;28;20053;-50
2023/04/08 06:09:02;;;;;;;;;;;;;;;8.24;100.00;102486.22;5072151;28;20039;-48
2023/04/08 06:11:28;;;;;;;149.95;38.80;;;;;;;8.20;100.00;102476.75;5071921;28;19912;-48
2023/04/08 06:13:53;;;;;;;153.75;38.55;;;;;;;8.11;100.00;102476.53;5071693;28;20040;-48
2023/04/08 06:16:19;;;;;;;173.00;43.85;;;;;;;8.12;100.00;102478.22;5071574;28;20123;-47
2023/04/08 06:18:44;;;;;;;177.38;45.75;;;;;;;8.08;100.00;102482.16;5072399;28;20306;-48
2023/04/08 06:21:10;;;;;;;180.10;43.22;;;;;;;8.07;100.00;102476.91;5071684;28;20115;-49
2023/04/08 06:23:35;;;;;;;182.13;44.33;;;;;;;8.13;100.00;102479.91;5071223;28;20028;-50
2023/04/08 06:26:01;;;;;;;166.68;43.45;;;;;;;8.18;100.00;102492.09;5071506;28;20593;-48
2023/04/08 06:28:28;;;;;;;164.98;44.33;;;;;;;8.17;100.00;102491.25;5071787;28;20104;-49
2023/04/08 06:30:54;;;;;;;164.40;46.03;;;;;;;8.09;100.00;102496.41;5071645;28;20028;-51
2023/04/08 06:33:19;;;;;;;168.15;45.35;;;;;;;8.10;100.00;102498.09;5071917;28;20032;-49
2023/04/08 06:35:44;;;;;;;177.68;47.92;;;;;;;8.09;100.00;102507.97;5071478;28;20028;-49
2023/04/08 06:38:10;;;;;;;172.98;43.97;;;;;;;8.18;100.00;102508.19;5071619;28;20029;-48
2023/04/08 06:40:38;;;;;;;172.32;46.53;;;;;;;8.17;100.00;102517.22;5070761;28;20030;-49
2023/04/08 06:43:03;;;;;;;;;;;;;;;8.12;100.00;102517.59;5072319;28;20495;-48
2023/04/08 06:45:29;;;;;;;155.13;41.53;;;;;;;8.18;100.00;102524.28;5072639;28;19904;-51
2023/04/08 06:47:55;;;;;;;159.25;42.75;;;;;;;8.24;100.00;102523.78;5072092;28;20119;-48
2023/04/08 06:50:20;;;;;;;167.40;45.28;;;;;;;8.26;100.00;102529.88;5071747;28;20039;-48
2023/04/08 06:52:46;;;;;;;173.52;45.63;;;;;;;8.31;100.00;102525.00;5070886;28;20044;-48
2023/04/08 06:55:11;;;;;;;166.65;45.55;;;;;;;8.43;100.00;102523.19;5070431;28;20138;-48
2023/04/08 06:57:37;;;;;;;151.18;43.72;;;;;;;8.69;100.00;102529.03;5070406;28;20492;-49
2023/04/08 07:00:03;;;;;;;148.32;44.35;;;;;;;9.33;100.00;102531.63;5070591;28;20079;-49
2023/04/08 07:02:28;;;;;;;138.18;42.90;;;;;;;9.84;100.00;102532.59;5070555;28;20089;-49
2023/04/08 07:04:53;;;;;;;140.32;42.58;;;;;;;10.49;100.00;102535.75;5070809;28;20031;-48
2023/04/08 07:07:19;;;;;;;127.30;41.35;;;;;;;11.33;100.00;102524.38;5070611;28;20028;-50
2023/04/08 07:09:45;;;;;;;118.30;39.40;;;;;;;11.91;100.00;102505.28;5071255;28;20055;-46
2023/04/08 07:12:11;;;;;;;121.68;40.17;;;;;;;12.52;100.00;102493.81;5070405;28;20526;-49
2023/04/08 07:14:36;;;;;;;124.97;42.10;;;;;;;12.77;100.00;102468.84;5070352;28;20024;-48
2023/04/08 07:17:02;;;;;;;115.18;40.63;;;;;;;13.31;100.00;102466.91;5069877;28;20468;-50
2023/04/08 07:19:27;;;;;;;119.13;41.67;;;;;;;13.42;100.00;102471.19;5070387;28;20099;-48
2023/04/08 07:21:53;;;;;;;123.13;41.42;;;;;;;13.86;100.00;102466.47;5061814;28;20031;-46
2023/04/08 07:24:18;;;;;;;118.63;42.28;;;;;;;13.63;100.00;102466.22;5048446;28;20477;-48
2023/04/08 07:26:43;;;;;;;125.18;44.10;;;;;;;14.09;100.00;102476.72;5049924;28;20041;-48
2023/04/08 07:29:09;;;;;;;116.97;40.72;;;;;;;14.97;100.00;102479.69;5048421;28;20040;-48
2023/04/08 07:31:35;;;;;;;128.35;46.63;;;;;;;15.33;100.00;102484.72;5048051;28;20425;-50
2023/04/08 07:34:00;;;;;;;130.23;45.67;;;;;;;15.28;100.00;102476.25;5069569;28;20036;-49
2023/04/08 07:36:26;;;;;;;129.57;46.30;;;;;;;14.69;100.00;102480.06;5067935;28;20124;-50
2023/04/08 07:38:52;;;;;;;128.70;46.58;;;;;;;14.65;100.00;102483.25;5054249;28;20086;-48
2023/04/08 07:41:17;;;;;;;137.15;46.75;;;;;;;14.89;100.00;102485.13;5057619;28;20116;-48
2023/04/08 07:43:43;;;;;;;125.53;44.58;;;;;;;14.98;100.00;102483.22;5055973;28;20084;-48
2023/04/08 07:46:08;;;;;;;139.35;48.20;;;;;;;15.22;100.00;102479.63;5089600;28;20543;-47
2023/04/08 07:48:34;;;;;;;122.05;42.70;;;;;;;16.84;100.00;102482.56;5096432;28;20051;-48
2023/04/08 07:51:09;;;;;;;120.47;45.75;;;;;;;18.08;98.85;102495.66;5096132;28;20034;-48
2023/04/08 07:53:34;;;;;;;117.13;44.03;;;;;;;18.76;92.13;102490.75;5095454;28;20449;-47
2023/04/08 07:56:02;;;;;;;120.78;46.60;;;;;;;18.47;88.52;102487.09;5095758;28;20031;-48
2023/04/08 07:58:28;;;;;;;131.43;50.25;;;;;;;16.97;92.96;102490.09;5093580;28;20024;-47
2023/04/08 08:00:53;;;;;;;123.95;47.35;;;;;;;16.32;100.00;102498.72;5093162;28;20617;-50
2023/04/08 08:03:19;;;;;;;127.00;46.85;;;;;;;16.98;98.55;102489.09;5092450;28;20047;-49
2023/04/08 08:05:44;;;;;;;108.30;44.78;;;;;;;17.88;95.26;102499.00;5094610;28;20047;-47
2023/04/08 08:08:12;;;;;;;107.63;43.10;;;;;;;18.54;92.63;102490.72;5094805;28;20028;-48
2023/04/08 08:10:38;;;;;;;101.00;43.83;;;;;;;19.37;86.13;102496.44;5092519;28;20066;-49
2023/04/08 08:13:05;;;;;;;102.25;44.38;;;;;;;19.95;81.07;102499.72;5092538;28;20040;-47
2023/04/08 08:15:30;;;;;;;106.90;45.38;;;;;;;20.04;78.88;102502.31;5094694;28;20024;-47
2023/04/08 08:17:56;;;;;;;105.82;43.92;;;;;;;19.74;77.97;102505.31;5095472;28;20040;-48
2023/04/08 08:20:21;;;;;;;105.80;43.45;;;;;;;19.61;79.51;102508.78;5095351;28;20024;-50
2023/04/08 08:22:46;;;;;;;100.32;43.85;;;;;;;19.53;79.69;102501.59;5096011;28;20104;-48
2023/04/08 08:25:12;;;;;;;103.18;45.45;;;;;;;19.85;78.93;102503.88;5095446;28;20761;-48
2023/04/08 08:27:39;;;;;;;100.82;44.78;;;;;;;19.40;82.65;102508.88;5095134;28;20536;-48
2023/04/08 08:30:05;;;;;;;;;;;;;;;19.97;79.99;102512.38;5094653;28;20027;-48
2023/04/08 08:32:30;;;;;;;87.45;40.20;;;;;;;21.12;75.45;102518.72;5092414;28;19916;-49
2023/04/08 08:34:56;;;;;;;87.50;40.53;;;;;;;20.70;72.41;102527.09;5092152;28;20031;-47
2023/04/08 08:37:21;;;;;;;90.38;40.65;;;;;;;20.35;76.66;102520.88;5074931;28;20082;-49
2023/04/08 08:39:46;;;;;;;89.78;41.92;;;;;;;21.03;73.90;102526.28;5051935;28;20080;-47
2023/04/08 08:42:22;;;;;;;76.43;36.80;;;;;;;21.40;71.69;102523.97;5052815;28;20064;-48
2023/04/08 08:44:47;;;;;;;93.78;40.92;;;;;;;21.34;68.54;102524.78;5052701;28;20027;-48
2023/04/08 08:47:13;;;;;;;90.50;42.05;;;;;;;20.16;73.16;102530.72;5053775;28;20439;-49
2023/04/08 08:49:39;;;;;;;89.05;42.45;;;;;;;19.80;74.94;102523.66;5054958;28;20465;-48
2023/04/08 08:52:05;;;;;;;89.57;42.85;;;;;;;20.28;76.37;102522.78;5051599;28;20086;-47
2023/04/08 08:54:31;;;;;;;86.97;41.65;;;;;;;21.05;73.24;102526.91;5051200;28;20060;-50
2023/04/08 08:56:56;;;;;;;97.50;41.83;;;;;;;20.69;74.05;102530.88;5053872;28;20129;-48
2023/04/08 08:59:22;;;;;;;75.07;36.90;;;;;;;21.76;70.69;102514.41;5068904;28;20025;-48
2023/04/08 09:01:47;;;;;;;87.80;40.28;;;;;;;21.78;69.11;102518.59;5053852;28;20032;-47
2023/04/08 09:04:15;;;;;;;87.65;41.38;;;;;;;21.03;69.68;102527.09;5051998;28;20095;-48
2023/04/08 09:06:41;;;;;;;75.50;37.75;;;;;;;20.71;72.56;102520.56;5052247;28;20131;-47
2023/04/08 09:09:10;;;;;;;72.07;36.40;;;;;;;21.53;69.82;102518.44;5051835;28;20067;-50
2023/04/08 09:11:40;;;;;;;73.13;35.30;;;;;;;21.25;71.75;102521.44;5049901;28;20123;-48
2023/04/08 09:14:19;;;;;;;58.63;30.88;;;;;;;23.08;65.45;102520.19;5051949;28;20039;-48
2023/04/08 09:16:45;;;;;;;55.42;30.80;;;;;;;23.33;63.04;102525.63;5052735;28;20131;-48
2023/04/08 09:19:10;;;;;;;53.47;29.80;;;;;;;22.97;66.62;102521.75;5052726;28;20029;-48
2023/04/08 09:21:37;;;;;;;55.55;30.48;;;;;;;22.41;66.66;102509.69;5052477;28;20032;-48
2023/04/08 09:24:02;;;;;;;52.65;30.55;;;;;;;22.13;65.56;102512.75;5054729;28;20101;-49
2023/04/08 09:26:28;;;;;;;44.95;27.35;;;;;;;22.05;64.76;102524.81;5055550;28;20039;-50
2023/04/08 09:29:01;;;;;;;51.83;26.77;;;;;;;23.65;59.78;102526.38;5052752;28;20037;-47
2023/04/08 09:31:32;;;;;;;41.88;25.20;;;;;;;24.11;56.21;102522.25;5053067;28;20024;-48
2023/04/08 09:34:01;;;;;;;38.50;23.50;;;;;;;23.81;55.77;102514.78;5051326;28;20033;-47
2023/04/08 09:36:27;;;;;;;39.92;23.63;;;;;;;23.66;56.75;102517.88;5050935;28;20442;-50
2023/04/08 09:38:53;;;;;;;49.42;26.73;;;;;;;22.99;56.62;102523.22;5051390;28;20036;-48
2023/04/08 09:41:20;;;;;;;42.30;26.40;;;;;;;21.05;63.39;102519.53;5050879;28;20032;-48
2023/04/08 09:43:55;;;;;;;44.42;27.40;;;;;;;20.25;67.79;102520.44;5051003;28;20031;-48
2023/04/08 09:46:40;;;;;;;41.72;25.60;;;;;;;20.50;65.26;102516.09;5050678;28;20029;-48
2023/04/08 09:49:12;;;;;;;48.10;26.15;;;;;;;20.82;64.86;102528.16;5050238;28;20021;-50
2023/04/08 09:51:52;;;;;;;41.80;25.60;;;;;;;20.66;68.44;102528.56;5048921;28;20097;-49
2023/04/08 09:54:20;;;;;;;37.47;24.63;;;;;;;21.27;66.06;102520.16;5048766;28;20398;-48
2023/04/08 09:57:34;;;;;;;40.50;25.05;;;;;;;21.45;64.76;102522.25;5048964;28;20044;-49
2023/04/08 10:00:04;;;;;;;40.97;25.38;;;;;;;21.40;66.45;102521.22;5018433;28;20360;-50
2023/04/08 10:02:39;;;;;;;30.83;20.55;;;;;;;22.46;58.35;102523.59;5048986;28;20021;-50
2023/04/08 10:05:06;;;;;;;28.77;19.20;;;;;;;23.05;54.78;102526.13;5049784;28;20374;-48
2023/04/08 10:07:31;;;;;;;36.28;20.90;;;;;;;23.01;53.16;102522.97;5048440;28;20450;-49
2023/04/08 10:09:56;;;;;;;28.92;19.90;;;;;;;22.47;55.67;102525.25;5046618;28;20029;-49
2023/04/08 10:12:22;;;;;;;29.65;20.05;;;;;;;21.83;56.20;102524.28;5048128;28;20389;-48
2023/04/08 10:15:26;;;;;;;32.92;22.15;;;;;;;21.62;53.83;102528.13;5048143;28;20363;-47
2023/04/08 10:17:56;;;;;;;32.58;21.73;;;;;;;21.14;55.85;102525.63;5047890;28;20087;-49
2023/04/08 10:20:33;;;;;;;32.40;21.30;;;;;;;20.75;58.43;102527.31;5049750;28;20033;-51
2023/04/08 10:22:59;;;;;;;36.63;23.45;;;;;;;20.59;59.70;102525.84;5049141;28;20505;-48
2023/04/08 10:25:27;;;;;;;37.13;24.88;;;;;;;19.72;63.86;102521.06;5048738;28;20550;-48
2023/04/08 10:27:52;;;;;;;35.13;21.63;;;;;;;20.76;61.68;102526.25;5064389;28;20040;-48
2023/04/08 10:30:26;;;;;;;35.85;22.38;;;;;;;20.79;56.82;102528.56;5053078;28;20029;-52
2023/04/08 10:32:55;;;;;;;36.03;23.38;;;;;;;20.64;58.41;102521.63;5067261;28;20036;-50
2023/04/08 10:35:30;;;;;;;36.05;24.15;;;;;;;20.22;59.01;102529.06;5067741;28;20385;-49
2023/04/08 10:37:57;;;;;;;34.67;22.95;;;;;;;19.96;60.86;102519.72;5069030;28;20031;-50
2023/04/08 10:40:22;;;;;;;42.03;25.13;;;;;;;19.74;60.51;102524.44;5068592;28;20031;-47
2023/04/08 10:42:56;;;;;;;37.10;23.45;;;;;;;19.51;61.15;102519.25;5068491;28;20032;-49
2023/04/08 10:45:22;;;;;;;39.47;23.67;;;;;;;19.56;59.27;102522.19;5067270;28;20162;-48
2023/04/08 10:47:48;;;;;;;45.88;25.55;;;;;;;18.61;59.74;102516.16;5067149;28;20036;-48
2023/04/08 10:50:14;;;;;;;36.95;23.00;;;;;;;18.67;63.45;102522.75;5066926;28;20025;-47
2023/04/08 10:52:50;;;;;;;38.40;24.45;;;;;;;19.44;63.04;102524.66;5067075;28;20040;-49
2023/04/08 10:55:22;;;;;;;34.97;21.58;;;;;;;20.06;58.19;102522.06;5067437;28;20035;-48
2023/04/08 10:57:49;;;;;;;32.58;21.52;;;;;;;20.11;57.50;102516.81;5067407;28;20028;-48
2023/04/08 11:00:19;;;;;;;34.17;21.80;;;;;;;19.80;59.62;102520.03;5068073;28;20032;-48
2023/04/08 11:02:44;;;;;;;32.88;20.77;;;;;;;20.06;56.83;102522.06;5067259;28;20029;-50
2023/04/08 11:05:09;;;;;;;34.63;22.90;;;;;;;20.12;56.35;102521.25;5068107;28;20033;-49